Terminal Aerodrome Forecast
Issued by NWS

Home | Current Version | Previous Version | Text Only | Print | Product List | Glossary On
Versions: 1 2 3 4 5 6 7 8 9 10 11 12
435
FTUS45 KVEF 031720
TAFHND
TAF
KHND 031720Z 0318/0418 03009KT P6SM SKC
     FM040100 VRB06KT P6SM FEW250
     FM040600 16007KT P6SM SCT250=

USA.gov is the U.S. government's official web portal to all federal, state and local government web resources and services.